Potomac — WBF7534 — position and weather

sailwx.info

Track history (hours):
 
Tides and Currents Weather Stations Pressure Air Temp Water Temp Dewpoint Dewpoint Depression Visibility Wind Speed Wind Dir Waves Ship Positions

Potomac

Owner: POTOMAC ASSOCIATION, OAKLAND, CA. More information available from US FCC via Universal Licensing System and Coast Guard Vessel Documentation Center.

Last reported at 2014-Oct-24 01:33 UTC. Time now 2014-Oct-25 01:26 UTC.
Position N 37°48' W 122°19'.

Length 51 m; draft 3.1 m.

MMSI: 367166810.

Date/timePositionNaut miles runAvg speedWind from/ knotsBaromVisibWave heightAir tempDewpointWater temp
2014-Oct-24 01:33N 37°48' W 122°19'4 4.0
2014-Oct-24 00:33N 37°48' W 122°24'1 1.4
2014-Oct-23 23:33N 37°49' W 122°25'3 3.4
2014-Oct-23 22:33N 37°48' W 122°21'3 2.8
2014-Oct-23 21:24N 37°48' W 122°17'0 0.0
2014-Oct-23 20:33N 37°48' W 122°17'0 0.1
2014-Oct-23 19:33N 37°48' W 122°17'1 0.7
2014-Oct-23 18:33N 37°48' W 122°18'1 0.7
2014-Oct-23 17:31N 37°48' W 122°17'0 0.0
2014-Oct-23 16:31N 37°48' W 122°17'  
2014-Oct-19 03:04N 37°48' W 122°17'2 4.7
2014-Oct-19 02:33N 37°48' W 122°20'6 5.8
2014-Oct-19 01:33N 37°49' W 122°27'3 3.4
2014-Oct-19 00:33N 37°52' W 122°27'7 7.2
2014-Oct-18 23:33N 37°48' W 122°20'2 0.7
2014-Oct-18 20:06N 37°48' W 122°17'1 2.6
2014-Oct-18 19:34N 37°48' W 122°19'5 4.7
2014-Oct-18 18:34N 37°49' W 122°24'6 6.0
2014-Oct-18 17:33N 37°48' W 122°17'0 0.0
2014-Oct-18 16:33N 37°48' W 122°17'0 0.0
2014-Oct-18 15:33N 37°48' W 122°17'0 0.0
2014-Oct-16 20:33N 37°48' W 122°17'9 8.7
2014-Oct-16 19:33N 37°52' W 122°27'3 2.6
2014-Oct-16 18:33N 37°51' W 122°24'6 6.2
2014-Oct-16 17:32N 37°48' W 122°17'0 0.0
2014-Oct-16 16:32N 37°48' W 122°17'  
Track history (hours):
 
Tides and Currents Weather Stations Pressure Air Temp Water Temp Dewpoint Dewpoint Depression Visibility Wind Speed Wind Dir Waves Ship Positions

Potomac

Owner: POTOMAC ASSOCIATION, OAKLAND, CA. More information available from US FCC via Universal Licensing System and Coast Guard Vessel Documentation Center.

Last reported at 2014-Oct-24 01:33 UTC. Time now 2014-Oct-25 01:26 UTC.
Position N 37°48' W 122°19'.

Length 51 m; draft 3.1 m.

MMSI: 367166810.

Date/timePositionNaut miles runAvg speedWind from/ knotsBaromVisibWave heightAir tempDewpointWater temp
2014-Oct-24 01:33N 37°48' W 122°19'4 4.0
2014-Oct-24 00:33N 37°48' W 122°24'1 1.4
2014-Oct-23 23:33N 37°49' W 122°25'3 3.4
2014-Oct-23 22:33N 37°48' W 122°21'3 2.8
2014-Oct-23 21:24N 37°48' W 122°17'0 0.0
2014-Oct-23 20:33N 37°48' W 122°17'0 0.1
2014-Oct-23 19:33N 37°48' W 122°17'1 0.7
2014-Oct-23 18:33N 37°48' W 122°18'1 0.7
2014-Oct-23 17:31N 37°48' W 122°17'0 0.0
2014-Oct-23 16:31N 37°48' W 122°17'  
2014-Oct-19 03:04N 37°48' W 122°17'2 4.7
2014-Oct-19 02:33N 37°48' W 122°20'6 5.8
2014-Oct-19 01:33N 37°49' W 122°27'3 3.4
2014-Oct-19 00:33N 37°52' W 122°27'7 7.2
2014-Oct-18 23:33N 37°48' W 122°20'2 0.7
2014-Oct-18 20:06N 37°48' W 122°17'1 2.6
2014-Oct-18 19:34N 37°48' W 122°19'5 4.7
2014-Oct-18 18:34N 37°49' W 122°24'6 6.0
2014-Oct-18 17:33N 37°48' W 122°17'0 0.0
2014-Oct-18 16:33N 37°48' W 122°17'0 0.0
2014-Oct-18 15:33N 37°48' W 122°17'0 0.0
2014-Oct-16 20:33N 37°48' W 122°17'9 8.7
2014-Oct-16 19:33N 37°52' W 122°27'3 2.6
2014-Oct-16 18:33N 37°51' W 122°24'6 6.2
2014-Oct-16 17:32N 37°48' W 122°17'0 0.0
2014-Oct-16 16:32N 37°48' W 122°17'  

Dump ship's entire track history